sensor_id;sensor_type;location;lat;lon;timestamp;P1;durP1;ratioP1;P2;durP2;ratioP2
85328;SDS011;76315;47.638;21.652;2024-02-23T00:00:34;12.10;;;5.32;;
85328;SDS011;76315;47.638;21.652;2024-02-23T00:02:59;12.50;;;5.38;;
85328;SDS011;76315;47.638;21.652;2024-02-23T00:05:25;11.87;;;5.27;;
85328;SDS011;76315;47.638;21.652;2024-02-23T00:07:51;10.52;;;5.15;;
85328;SDS011;76315;47.638;21.652;2024-02-23T00:10:16;11.27;;;5.37;;
85328;SDS011;76315;47.638;21.652;2024-02-23T00:12:42;9.90;;;5.13;;
85328;SDS011;76315;47.638;21.652;2024-02-23T00:15:09;8.75;;;5.13;;
85328;SDS011;76315;47.638;21.652;2024-02-23T00:17:35;11.73;;;5.28;;
85328;SDS011;76315;47.638;21.652;2024-02-23T00:20:00;11.83;;;5.17;;
85328;SDS011;76315;47.638;21.652;2024-02-23T00:22:26;11.85;;;5.13;;
85328;SDS011;76315;47.638;21.652;2024-02-23T00:24:51;10.87;;;5.47;;
85328;SDS011;76315;47.638;21.652;2024-02-23T00:27:17;13.47;;;5.50;;
85328;SDS011;76315;47.638;21.652;2024-02-23T00:29:42;10.00;;;5.47;;
85328;SDS011;76315;47.638;21.652;2024-02-23T00:32:08;9.95;;;5.00;;
85328;SDS011;76315;47.638;21.652;2024-02-23T00:34:33;11.93;;;5.17;;
85328;SDS011;76315;47.638;21.652;2024-02-23T00:36:59;10.20;;;4.60;;
85328;SDS011;76315;47.638;21.652;2024-02-23T00:39:24;14.33;;;5.27;;
85328;SDS011;76315;47.638;21.652;2024-02-23T00:41:50;9.10;;;4.67;;
85328;SDS011;76315;47.638;21.652;2024-02-23T00:44:15;10.40;;;5.60;;
85328;SDS011;76315;47.638;21.652;2024-02-23T00:46:41;11.73;;;5.50;;
85328;SDS011;76315;47.638;21.652;2024-02-23T00:49:07;9.90;;;5.20;;
85328;SDS011;76315;47.638;21.652;2024-02-23T00:51:32;8.77;;;4.97;;
85328;SDS011;76315;47.638;21.652;2024-02-23T00:53:58;9.53;;;4.90;;
85328;SDS011;76315;47.638;21.652;2024-02-23T00:56:24;10.63;;;5.28;;
85328;SDS011;76315;47.638;21.652;2024-02-23T00:58:50;10.18;;;5.22;;
85328;SDS011;76315;47.638;21.652;2024-02-23T01:01:16;8.95;;;4.25;;
85328;SDS011;76315;47.638;21.652;2024-02-23T01:03:41;11.93;;;5.33;;
85328;SDS011;76315;47.638;21.652;2024-02-23T01:06:07;10.30;;;5.45;;
85328;SDS011;76315;47.638;21.652;2024-02-23T01:08:32;11.47;;;5.20;;
85328;SDS011;76315;47.638;21.652;2024-02-23T01:10:58;10.23;;;5.77;;
85328;SDS011;76315;47.638;21.652;2024-02-23T01:13:23;8.95;;;5.22;;
85328;SDS011;76315;47.638;21.652;2024-02-23T01:15:49;11.70;;;5.15;;
85328;SDS011;76315;47.638;21.652;2024-02-23T01:18:14;10.43;;;5.23;;
85328;SDS011;76315;47.638;21.652;2024-02-23T01:20:40;10.23;;;5.70;;
85328;SDS011;76315;47.638;21.652;2024-02-23T01:23:05;11.27;;;5.18;;
85328;SDS011;76315;47.638;21.652;2024-02-23T01:25:31;10.73;;;4.97;;
85328;SDS011;76315;47.638;21.652;2024-02-23T01:27:56;10.83;;;5.30;;
85328;SDS011;76315;47.638;21.652;2024-02-23T01:30:24;11.50;;;5.30;;
85328;SDS011;76315;47.638;21.652;2024-02-23T01:32:50;11.63;;;5.20;;
85328;SDS011;76315;47.638;21.652;2024-02-23T01:35:15;11.45;;;5.18;;
85328;SDS011;76315;47.638;21.652;2024-02-23T01:37:41;9.43;;;4.80;;
85328;SDS011;76315;47.638;21.652;2024-02-23T01:40:07;8.95;;;4.57;;
85328;SDS011;76315;47.638;21.652;2024-02-23T01:42:32;9.30;;;5.03;;
85328;SDS011;76315;47.638;21.652;2024-02-23T01:44:58;9.73;;;5.32;;
85328;SDS011;76315;47.638;21.652;2024-02-23T01:47:25;10.05;;;4.40;;
85328;SDS011;76315;47.638;21.652;2024-02-23T01:49:53;9.00;;;4.67;;
85328;SDS011;76315;47.638;21.652;2024-02-23T01:52:19;9.43;;;4.85;;
85328;SDS011;76315;47.638;21.652;2024-02-23T01:54:46;9.80;;;4.78;;
85328;SDS011;76315;47.638;21.652;2024-02-23T01:57:11;10.10;;;4.67;;
85328;SDS011;76315;47.638;21.652;2024-02-23T01:59:37;10.98;;;5.13;;
85328;SDS011;76315;47.638;21.652;2024-02-23T02:02:03;7.43;;;4.33;;
85328;SDS011;76315;47.638;21.652;2024-02-23T02:04:29;7.80;;;4.15;;
85328;SDS011;76315;47.638;21.652;2024-02-23T02:06:55;10.40;;;4.30;;
85328;SDS011;76315;47.638;21.652;2024-02-23T02:09:21;9.80;;;4.30;;
85328;SDS011;76315;47.638;21.652;2024-02-23T02:11:50;9.10;;;4.43;;
85328;SDS011;76315;47.638;21.652;2024-02-23T02:14:16;9.43;;;4.15;;
85328;SDS011;76315;47.638;21.652;2024-02-23T02:16:42;8.50;;;4.13;;
85328;SDS011;76315;47.638;21.652;2024-02-23T02:19:09;8.87;;;4.30;;
85328;SDS011;76315;47.638;21.652;2024-02-23T02:21:35;9.10;;;4.45;;
85328;SDS011;76315;47.638;21.652;2024-02-23T02:24:01;8.68;;;4.47;;
85328;SDS011;76315;47.638;21.652;2024-02-23T02:26:28;7.65;;;4.00;;
85328;SDS011;76315;47.638;21.652;2024-02-23T02:28:53;9.55;;;4.22;;
85328;SDS011;76315;47.638;21.652;2024-02-23T02:31:19;9.48;;;3.75;;
85328;SDS011;76315;47.638;21.652;2024-02-23T02:33:44;9.20;;;3.77;;
85328;SDS011;76315;47.638;21.652;2024-02-23T02:36:10;9.43;;;3.90;;
85328;SDS011;76315;47.638;21.652;2024-02-23T02:38:36;8.45;;;3.70;;
85328;SDS011;76315;47.638;21.652;2024-02-23T02:41:02;8.20;;;4.28;;
85328;SDS011;76315;47.638;21.652;2024-02-23T02:43:28;12.50;;;4.27;;
85328;SDS011;76315;47.638;21.652;2024-02-23T02:45:53;9.45;;;4.47;;
85328;SDS011;76315;47.638;21.652;2024-02-23T02:48:19;9.03;;;4.33;;
85328;SDS011;76315;47.638;21.652;2024-02-23T02:50:45;9.23;;;3.75;;
85328;SDS011;76315;47.638;21.652;2024-02-23T02:53:10;11.25;;;4.00;;
85328;SDS011;76315;47.638;21.652;2024-02-23T02:55:41;8.07;;;3.83;;
85328;SDS011;76315;47.638;21.652;2024-02-23T02:58:07;7.77;;;3.83;;
85328;SDS011;76315;47.638;21.652;2024-02-23T03:00:33;10.10;;;3.95;;
85328;SDS011;76315;47.638;21.652;2024-02-23T03:02:58;7.30;;;3.67;;
85328;SDS011;76315;47.638;21.652;2024-02-23T03:05:24;6.78;;;3.33;;
85328;SDS011;76315;47.638;21.652;2024-02-23T03:07:49;8.60;;;3.53;;
85328;SDS011;76315;47.638;21.652;2024-02-23T03:10:15;7.73;;;4.20;;
85328;SDS011;76315;47.638;21.652;2024-02-23T03:12:41;6.82;;;3.70;;
85328;SDS011;76315;47.638;21.652;2024-02-23T03:15:09;8.75;;;4.00;;
85328;SDS011;76315;47.638;21.652;2024-02-23T03:17:37;8.20;;;4.30;;
85328;SDS011;76315;47.638;21.652;2024-02-23T03:20:03;8.25;;;3.63;;
85328;SDS011;76315;47.638;21.652;2024-02-23T03:22:36;6.82;;;3.38;;
85328;SDS011;76315;47.638;21.652;2024-02-23T03:25:02;8.75;;;3.65;;
85328;SDS011;76315;47.638;21.652;2024-02-23T03:27:33;8.57;;;3.73;;
85328;SDS011;76315;47.638;21.652;2024-02-23T03:29:59;7.53;;;3.55;;
85328;SDS011;76315;47.638;21.652;2024-02-23T03:32:24;7.43;;;3.60;;
85328;SDS011;76315;47.638;21.652;2024-02-23T03:34:50;7.80;;;3.50;;
85328;SDS011;76315;47.638;21.652;2024-02-23T03:37:15;9.00;;;3.60;;
85328;SDS011;76315;47.638;21.652;2024-02-23T03:39:41;7.68;;;3.58;;
85328;SDS011;76315;47.638;21.652;2024-02-23T03:42:07;6.77;;;3.87;;
85328;SDS011;76315;47.638;21.652;2024-02-23T03:44:32;7.93;;;4.05;;
85328;SDS011;76315;47.638;21.652;2024-02-23T03:46:58;7.60;;;3.22;;
85328;SDS011;76315;47.638;21.652;2024-02-23T03:49:23;10.07;;;3.90;;
85328;SDS011;76315;47.638;21.652;2024-02-23T03:51:49;6.50;;;3.10;;
85328;SDS011;76315;47.638;21.652;2024-02-23T03:54:14;6.63;;;3.28;;
85328;SDS011;76315;47.638;21.652;2024-02-23T03:56:40;5.90;;;3.07;;
85328;SDS011;76315;47.638;21.652;2024-02-23T03:59:07;10.27;;;3.83;;
85328;SDS011;76315;47.638;21.652;2024-02-23T04:01:36;8.55;;;3.55;;
85328;SDS011;76315;47.638;21.652;2024-02-23T04:04:05;7.28;;;3.30;;
85328;SDS011;76315;47.638;21.652;2024-02-23T04:06:31;8.10;;;3.73;;
85328;SDS011;76315;47.638;21.652;2024-02-23T04:08:57;7.90;;;3.63;;
85328;SDS011;76315;47.638;21.652;2024-02-23T04:11:22;7.15;;;3.38;;
85328;SDS011;76315;47.638;21.652;2024-02-23T04:13:48;7.77;;;3.63;;
85328;SDS011;76315;47.638;21.652;2024-02-23T04:16:13;7.57;;;3.73;;
85328;SDS011;76315;47.638;21.652;2024-02-23T04:18:39;9.10;;;3.83;;
85328;SDS011;76315;47.638;21.652;2024-02-23T04:21:05;8.70;;;3.77;;
85328;SDS011;76315;47.638;21.652;2024-02-23T04:23:30;8.70;;;3.60;;
85328;SDS011;76315;47.638;21.652;2024-02-23T04:25:56;6.35;;;3.58;;
85328;SDS011;76315;47.638;21.652;2024-02-23T04:28:21;6.27;;;3.03;;
85328;SDS011;76315;47.638;21.652;2024-02-23T04:30:47;8.67;;;3.20;;
85328;SDS011;76315;47.638;21.652;2024-02-23T04:33:12;8.23;;;3.85;;
85328;SDS011;76315;47.638;21.652;2024-02-23T04:35:38;10.50;;;3.90;;
85328;SDS011;76315;47.638;21.652;2024-02-23T04:38:03;9.60;;;4.37;;
85328;SDS011;76315;47.638;21.652;2024-02-23T04:40:29;7.88;;;3.90;;
85328;SDS011;76315;47.638;21.652;2024-02-23T04:42:55;8.03;;;4.33;;
85328;SDS011;76315;47.638;21.652;2024-02-23T04:45:20;7.50;;;3.83;;
85328;SDS011;76315;47.638;21.652;2024-02-23T04:47:46;8.73;;;4.05;;
85328;SDS011;76315;47.638;21.652;2024-02-23T04:50:13;7.43;;;3.60;;
85328;SDS011;76315;47.638;21.652;2024-02-23T04:52:39;8.50;;;3.97;;
85328;SDS011;76315;47.638;21.652;2024-02-23T04:55:04;8.85;;;4.28;;
85328;SDS011;76315;47.638;21.652;2024-02-23T04:57:31;7.80;;;4.50;;
85328;SDS011;76315;47.638;21.652;2024-02-23T04:59:57;9.00;;;3.85;;
85328;SDS011;76315;47.638;21.652;2024-02-23T05:02:25;8.05;;;4.05;;
85328;SDS011;76315;47.638;21.652;2024-02-23T05:04:54;8.70;;;4.03;;
85328;SDS011;76315;47.638;21.652;2024-02-23T05:07:19;8.93;;;4.13;;
85328;SDS011;76315;47.638;21.652;2024-02-23T05:09:46;7.97;;;4.07;;
85328;SDS011;76315;47.638;21.652;2024-02-23T05:12:11;10.10;;;4.23;;
85328;SDS011;76315;47.638;21.652;2024-02-23T05:14:37;7.82;;;4.10;;
85328;SDS011;76315;47.638;21.652;2024-02-23T05:17:02;8.60;;;3.60;;
85328;SDS011;76315;47.638;21.652;2024-02-23T05:19:28;7.45;;;4.00;;
85328;SDS011;76315;47.638;21.652;2024-02-23T05:21:54;7.27;;;3.57;;
85328;SDS011;76315;47.638;21.652;2024-02-23T05:24:19;8.60;;;4.33;;
85328;SDS011;76315;47.638;21.652;2024-02-23T05:26:45;9.00;;;4.38;;
85328;SDS011;76315;47.638;21.652;2024-02-23T05:29:11;8.03;;;4.30;;
85328;SDS011;76315;47.638;21.652;2024-02-23T05:31:46;9.98;;;4.20;;
85328;SDS011;76315;47.638;21.652;2024-02-23T05:34:14;9.15;;;4.47;;
85328;SDS011;76315;47.638;21.652;2024-02-23T05:36:40;8.57;;;4.60;;
85328;SDS011;76315;47.638;21.652;2024-02-23T05:39:05;8.45;;;4.30;;
85328;SDS011;76315;47.638;21.652;2024-02-23T05:41:32;10.85;;;5.22;;
85328;SDS011;76315;47.638;21.652;2024-02-23T05:43:58;11.43;;;5.82;;
85328;SDS011;76315;47.638;21.652;2024-02-23T05:46:24;8.67;;;4.97;;
85328;SDS011;76315;47.638;21.652;2024-02-23T05:48:50;9.97;;;5.73;;
85328;SDS011;76315;47.638;21.652;2024-02-23T05:51:15;11.82;;;6.00;;
85328;SDS011;76315;47.638;21.652;2024-02-23T05:53:41;13.37;;;5.70;;
85328;SDS011;76315;47.638;21.652;2024-02-23T05:56:06;13.53;;;5.80;;
85328;SDS011;76315;47.638;21.652;2024-02-23T05:58:32;11.20;;;5.80;;
85328;SDS011;76315;47.638;21.652;2024-02-23T06:00:58;12.80;;;5.85;;
85328;SDS011;76315;47.638;21.652;2024-02-23T06:03:23;11.70;;;5.93;;
85328;SDS011;76315;47.638;21.652;2024-02-23T06:05:49;12.87;;;5.93;;
85328;SDS011;76315;47.638;21.652;2024-02-23T06:08:14;13.50;;;6.60;;
85328;SDS011;76315;47.638;21.652;2024-02-23T06:10:40;12.10;;;6.43;;
85328;SDS011;76315;47.638;21.652;2024-02-23T06:13:08;12.05;;;6.40;;
85328;SDS011;76315;47.638;21.652;2024-02-23T06:15:33;15.13;;;6.63;;
85328;SDS011;76315;47.638;21.652;2024-02-23T06:17:59;11.77;;;6.87;;
85328;SDS011;76315;47.638;21.652;2024-02-23T06:20:25;13.55;;;6.43;;
85328;SDS011;76315;47.638;21.652;2024-02-23T06:22:50;13.07;;;6.77;;
85328;SDS011;76315;47.638;21.652;2024-02-23T06:25:16;12.85;;;6.50;;
85328;SDS011;76315;47.638;21.652;2024-02-23T06:27:41;12.60;;;6.30;;
85328;SDS011;76315;47.638;21.652;2024-02-23T06:30:07;12.57;;;6.43;;
85328;SDS011;76315;47.638;21.652;2024-02-23T06:32:33;12.20;;;6.43;;
85328;SDS011;76315;47.638;21.652;2024-02-23T06:34:59;14.10;;;5.70;;
85328;SDS011;76315;47.638;21.652;2024-02-23T06:37:27;11.37;;;5.40;;
85328;SDS011;76315;47.638;21.652;2024-02-23T06:40:00;13.38;;;6.18;;
85328;SDS011;76315;47.638;21.652;2024-02-23T06:42:26;11.77;;;6.60;;
85328;SDS011;76315;47.638;21.652;2024-02-23T06:44:51;13.17;;;5.63;;
85328;SDS011;76315;47.638;21.652;2024-02-23T06:47:17;12.47;;;5.80;;
85328;SDS011;76315;47.638;21.652;2024-02-23T06:49:43;11.98;;;5.78;;
85328;SDS011;76315;47.638;21.652;2024-02-23T06:52:09;9.87;;;5.13;;
85328;SDS011;76315;47.638;21.652;2024-02-23T06:54:44;12.32;;;5.70;;
85328;SDS011;76315;47.638;21.652;2024-02-23T06:57:15;9.15;;;5.28;;
85328;SDS011;76315;47.638;21.652;2024-02-23T06:59:41;10.90;;;5.72;;
85328;SDS011;76315;47.638;21.652;2024-02-23T07:02:07;11.03;;;5.57;;
85328;SDS011;76315;47.638;21.652;2024-02-23T07:04:32;12.73;;;5.93;;
85328;SDS011;76315;47.638;21.652;2024-02-23T07:06:59;11.03;;;4.67;;
85328;SDS011;76315;47.638;21.652;2024-02-23T07:09:24;9.65;;;4.93;;
85328;SDS011;76315;47.638;21.652;2024-02-23T07:11:50;9.83;;;5.83;;
85328;SDS011;76315;47.638;21.652;2024-02-23T07:14:15;11.52;;;5.03;;
85328;SDS011;76315;47.638;21.652;2024-02-23T07:16:47;11.30;;;5.40;;
85328;SDS011;76315;47.638;21.652;2024-02-23T07:19:12;10.48;;;5.55;;
85328;SDS011;76315;47.638;21.652;2024-02-23T07:21:38;10.23;;;5.63;;
85328;SDS011;76315;47.638;21.652;2024-02-23T07:24:03;9.20;;;4.88;;
85328;SDS011;76315;47.638;21.652;2024-02-23T07:26:29;7.53;;;4.25;;
85328;SDS011;76315;47.638;21.652;2024-02-23T07:28:55;10.50;;;5.25;;
85328;SDS011;76315;47.638;21.652;2024-02-23T07:31:21;11.83;;;4.93;;
85328;SDS011;76315;47.638;21.652;2024-02-23T07:33:46;10.60;;;4.85;;
85328;SDS011;76315;47.638;21.652;2024-02-23T07:36:15;11.23;;;5.07;;
85328;SDS011;76315;47.638;21.652;2024-02-23T07:38:41;10.05;;;4.60;;
85328;SDS011;76315;47.638;21.652;2024-02-23T07:41:09;12.63;;;5.43;;
85328;SDS011;76315;47.638;21.652;2024-02-23T07:43:37;13.68;;;5.60;;
85328;SDS011;76315;47.638;21.652;2024-02-23T07:46:03;10.90;;;4.80;;
85328;SDS011;76315;47.638;21.652;2024-02-23T07:48:30;9.05;;;4.90;;
85328;SDS011;76315;47.638;21.652;2024-02-23T07:50:56;11.45;;;5.60;;
85328;SDS011;76315;47.638;21.652;2024-02-23T07:53:21;10.80;;;5.37;;
85328;SDS011;76315;47.638;21.652;2024-02-23T07:55:47;10.35;;;5.05;;
85328;SDS011;76315;47.638;21.652;2024-02-23T07:58:12;13.30;;;5.57;;
85328;SDS011;76315;47.638;21.652;2024-02-23T08:00:40;11.20;;;5.05;;
85328;SDS011;76315;47.638;21.652;2024-02-23T08:03:05;10.70;;;5.10;;
85328;SDS011;76315;47.638;21.652;2024-02-23T08:05:32;10.23;;;5.90;;
85328;SDS011;76315;47.638;21.652;2024-02-23T08:07:58;10.63;;;5.63;;
85328;SDS011;76315;47.638;21.652;2024-02-23T08:10:23;10.70;;;5.13;;
85328;SDS011;76315;47.638;21.652;2024-02-23T08:12:50;10.07;;;5.53;;
85328;SDS011;76315;47.638;21.652;2024-02-23T08:15:18;9.73;;;5.00;;
85328;SDS011;76315;47.638;21.652;2024-02-23T08:17:44;14.00;;;6.20;;
85328;SDS011;76315;47.638;21.652;2024-02-23T08:20:10;10.60;;;4.93;;
85328;SDS011;76315;47.638;21.652;2024-02-23T08:22:35;10.23;;;5.30;;
85328;SDS011;76315;47.638;21.652;2024-02-23T08:25:01;11.50;;;5.80;;
85328;SDS011;76315;47.638;21.652;2024-02-23T08:27:27;10.93;;;5.50;;
85328;SDS011;76315;47.638;21.652;2024-02-23T08:29:53;11.70;;;4.87;;
85328;SDS011;76315;47.638;21.652;2024-02-23T08:32:22;10.82;;;5.85;;
85328;SDS011;76315;47.638;21.652;2024-02-23T08:34:48;11.68;;;5.30;;
85328;SDS011;76315;47.638;21.652;2024-02-23T08:37:17;9.93;;;4.70;;
85328;SDS011;76315;47.638;21.652;2024-02-23T08:39:44;12.75;;;5.40;;
85328;SDS011;76315;47.638;21.652;2024-02-23T08:42:17;10.25;;;5.03;;
85328;SDS011;76315;47.638;21.652;2024-02-23T08:44:43;10.77;;;5.43;;
85328;SDS011;76315;47.638;21.652;2024-02-23T08:47:11;10.50;;;5.68;;
85328;SDS011;76315;47.638;21.652;2024-02-23T08:49:36;11.32;;;5.32;;
85328;SDS011;76315;47.638;21.652;2024-02-23T08:52:02;9.50;;;5.18;;
85328;SDS011;76315;47.638;21.652;2024-02-23T08:54:29;9.55;;;5.47;;
85328;SDS011;76315;47.638;21.652;2024-02-23T08:56:55;10.23;;;5.07;;
85328;SDS011;76315;47.638;21.652;2024-02-23T08:59:20;10.85;;;5.63;;
85328;SDS011;76315;47.638;21.652;2024-02-23T09:01:46;10.53;;;5.37;;
85328;SDS011;76315;47.638;21.652;2024-02-23T09:04:12;11.82;;;5.35;;
85328;SDS011;76315;47.638;21.652;2024-02-23T09:06:38;11.80;;;5.90;;
85328;SDS011;76315;47.638;21.652;2024-02-23T09:09:05;10.07;;;5.90;;
85328;SDS011;76315;47.638;21.652;2024-02-23T09:11:30;11.25;;;5.53;;
85328;SDS011;76315;47.638;21.652;2024-02-23T09:13:56;10.00;;;4.97;;
85328;SDS011;76315;47.638;21.652;2024-02-23T09:16:22;11.07;;;6.07;;
85328;SDS011;76315;47.638;21.652;2024-02-23T09:18:49;10.10;;;5.67;;
85328;SDS011;76315;47.638;21.652;2024-02-23T09:21:16;10.45;;;5.05;;
85328;SDS011;76315;47.638;21.652;2024-02-23T09:23:41;11.40;;;6.00;;
85328;SDS011;76315;47.638;21.652;2024-02-23T09:26:10;12.30;;;6.17;;
85328;SDS011;76315;47.638;21.652;2024-02-23T09:28:36;10.70;;;5.82;;
85328;SDS011;76315;47.638;21.652;2024-02-23T09:31:02;13.05;;;6.25;;
85328;SDS011;76315;47.638;21.652;2024-02-23T09:33:30;11.02;;;5.68;;
85328;SDS011;76315;47.638;21.652;2024-02-23T09:35:56;11.50;;;5.80;;
85328;SDS011;76315;47.638;21.652;2024-02-23T09:38:25;10.47;;;5.03;;
85328;SDS011;76315;47.638;21.652;2024-02-23T09:43:31;12.05;;;5.80;;
85328;SDS011;76315;47.638;21.652;2024-02-23T09:46:22;10.57;;;5.78;;
85328;SDS011;76315;47.638;21.652;2024-02-23T09:48:47;11.63;;;5.93;;
85328;SDS011;76315;47.638;21.652;2024-02-23T09:51:14;11.90;;;5.17;;
85328;SDS011;76315;47.638;21.652;2024-02-23T09:53:40;11.05;;;5.45;;
85328;SDS011;76315;47.638;21.652;2024-02-23T09:56:07;10.25;;;5.68;;
85328;SDS011;76315;47.638;21.652;2024-02-23T09:58:43;13.18;;;5.00;;
85328;SDS011;76315;47.638;21.652;2024-02-23T10:01:14;9.18;;;5.20;;
85328;SDS011;76315;47.638;21.652;2024-02-23T10:03:49;13.40;;;5.57;;
85328;SDS011;76315;47.638;21.652;2024-02-23T10:06:14;11.25;;;5.78;;
85328;SDS011;76315;47.638;21.652;2024-02-23T10:08:40;9.43;;;5.13;;
85328;SDS011;76315;47.638;21.652;2024-02-23T10:11:05;9.47;;;4.87;;
85328;SDS011;76315;47.638;21.652;2024-02-23T10:13:32;10.20;;;5.28;;
85328;SDS011;76315;47.638;21.652;2024-02-23T10:15:58;10.57;;;4.90;;
85328;SDS011;76315;47.638;21.652;2024-02-23T10:18:23;12.07;;;5.97;;
85328;SDS011;76315;47.638;21.652;2024-02-23T10:20:49;9.93;;;5.18;;
85328;SDS011;76315;47.638;21.652;2024-02-23T10:23:17;8.40;;;4.53;;
85328;SDS011;76315;47.638;21.652;2024-02-23T10:25:45;11.75;;;5.00;;
85328;SDS011;76315;47.638;21.652;2024-02-23T10:28:11;10.48;;;5.43;;
85328;SDS011;76315;47.638;21.652;2024-02-23T10:30:47;8.90;;;4.70;;
85328;SDS011;76315;47.638;21.652;2024-02-23T10:33:18;10.13;;;4.90;;
85328;SDS011;76315;47.638;21.652;2024-02-23T10:35:45;8.13;;;4.47;;
85328;SDS011;76315;47.638;21.652;2024-02-23T10:38:12;10.52;;;5.13;;
85328;SDS011;76315;47.638;21.652;2024-02-23T10:40:45;10.10;;;4.93;;
85328;SDS011;76315;47.638;21.652;2024-02-23T10:43:16;10.30;;;5.10;;
85328;SDS011;76315;47.638;21.652;2024-02-23T10:45:49;10.63;;;5.22;;
85328;SDS011;76315;47.638;21.652;2024-02-23T10:48:14;11.40;;;4.80;;
85328;SDS011;76315;47.638;21.652;2024-02-23T10:50:48;8.40;;;4.82;;
85328;SDS011;76315;47.638;21.652;2024-02-23T10:53:14;11.50;;;4.85;;
85328;SDS011;76315;47.638;21.652;2024-02-23T10:55:44;8.80;;;5.10;;
85328;SDS011;76315;47.638;21.652;2024-02-23T10:58:10;14.13;;;4.80;;
85328;SDS011;76315;47.638;21.652;2024-02-23T11:00:38;11.35;;;5.40;;
85328;SDS011;76315;47.638;21.652;2024-02-23T11:03:04;10.95;;;5.10;;
85328;SDS011;76315;47.638;21.652;2024-02-23T11:05:38;8.87;;;4.87;;
85328;SDS011;76315;47.638;21.652;2024-02-23T11:08:05;9.07;;;4.40;;
85328;SDS011;76315;47.638;21.652;2024-02-23T11:10:31;10.98;;;5.18;;
85328;SDS011;76315;47.638;21.652;2024-02-23T11:13:15;9.82;;;4.63;;
85328;SDS011;76315;47.638;21.652;2024-02-23T11:15:42;8.90;;;4.50;;
85328;SDS011;76315;47.638;21.652;2024-02-23T11:18:23;9.65;;;4.38;;
85328;SDS011;76315;47.638;21.652;2024-02-23T11:20:56;9.77;;;4.75;;
85328;SDS011;76315;47.638;21.652;2024-02-23T11:23:26;10.52;;;5.07;;
85328;SDS011;76315;47.638;21.652;2024-02-23T11:25:59;10.63;;;4.30;;
85328;SDS011;76315;47.638;21.652;2024-02-23T11:28:27;9.35;;;4.30;;
85328;SDS011;76315;47.638;21.652;2024-02-23T11:30:57;9.82;;;4.75;;
85328;SDS011;76315;47.638;21.652;2024-02-23T11:33:28;9.20;;;4.43;;
85328;SDS011;76315;47.638;21.652;2024-02-23T11:36:04;8.73;;;4.45;;
85328;SDS011;76315;47.638;21.652;2024-02-23T11:38:32;10.15;;;4.82;;
85328;SDS011;76315;47.638;21.652;2024-02-23T11:41:00;7.95;;;3.97;;
85328;SDS011;76315;47.638;21.652;2024-02-23T11:43:27;8.82;;;4.07;;
85328;SDS011;76315;47.638;21.652;2024-02-23T11:45:53;9.97;;;4.67;;
85328;SDS011;76315;47.638;21.652;2024-02-23T11:48:19;8.88;;;4.80;;
85328;SDS011;76315;47.638;21.652;2024-02-23T11:50:44;10.13;;;4.07;;
85328;SDS011;76315;47.638;21.652;2024-02-23T11:53:10;10.13;;;4.35;;
85328;SDS011;76315;47.638;21.652;2024-02-23T11:55:36;8.40;;;4.47;;
85328;SDS011;76315;47.638;21.652;2024-02-23T11:58:02;9.43;;;5.00;;
85328;SDS011;76315;47.638;21.652;2024-02-23T12:00:27;8.43;;;4.93;;
85328;SDS011;76315;47.638;21.652;2024-02-23T12:02:55;8.80;;;4.55;;
85328;SDS011;76315;47.638;21.652;2024-02-23T12:05:21;9.25;;;4.95;;
85328;SDS011;76315;47.638;21.652;2024-02-23T12:07:47;9.57;;;4.87;;
85328;SDS011;76315;47.638;21.652;2024-02-23T12:10:13;9.88;;;4.90;;
85328;SDS011;76315;47.638;21.652;2024-02-23T12:12:38;9.47;;;4.77;;
85328;SDS011;76315;47.638;21.652;2024-02-23T12:15:07;10.90;;;5.50;;
85328;SDS011;76315;47.638;21.652;2024-02-23T12:17:36;10.88;;;5.78;;
85328;SDS011;76315;47.638;21.652;2024-02-23T12:20:03;9.50;;;4.80;;
85328;SDS011;76315;47.638;21.652;2024-02-23T12:22:31;10.23;;;5.17;;
85328;SDS011;76315;47.638;21.652;2024-02-23T12:25:00;11.43;;;5.50;;
85328;SDS011;76315;47.638;21.652;2024-02-23T12:27:25;8.57;;;4.57;;
85328;SDS011;76315;47.638;21.652;2024-02-23T12:29:52;9.70;;;5.10;;
85328;SDS011;76315;47.638;21.652;2024-02-23T12:32:19;10.88;;;5.30;;
85328;SDS011;76315;47.638;21.652;2024-02-23T12:34:45;8.43;;;4.60;;
85328;SDS011;76315;47.638;21.652;2024-02-23T12:37:14;10.10;;;5.15;;
85328;SDS011;76315;47.638;21.652;2024-02-23T12:39:41;11.27;;;5.45;;
85328;SDS011;76315;47.638;21.652;2024-02-23T12:42:09;10.40;;;5.20;;
85328;SDS011;76315;47.638;21.652;2024-02-23T12:44:35;10.25;;;5.18;;
85328;SDS011;76315;47.638;21.652;2024-02-23T12:47:01;8.33;;;4.60;;
85328;SDS011;76315;47.638;21.652;2024-02-23T12:49:26;11.57;;;4.82;;
85328;SDS011;76315;47.638;21.652;2024-02-23T12:51:52;9.30;;;4.80;;
85328;SDS011;76315;47.638;21.652;2024-02-23T12:54:18;9.18;;;4.65;;
85328;SDS011;76315;47.638;21.652;2024-02-23T12:56:44;8.43;;;4.47;;
85328;SDS011;76315;47.638;21.652;2024-02-23T12:59:09;10.03;;;4.83;;
85328;SDS011;76315;47.638;21.652;2024-02-23T13:01:35;9.38;;;5.28;;
85328;SDS011;76315;47.638;21.652;2024-02-23T13:04:03;8.70;;;5.05;;
85328;SDS011;76315;47.638;21.652;2024-02-23T13:06:35;10.05;;;5.50;;
85328;SDS011;76315;47.638;21.652;2024-02-23T13:09:04;9.07;;;4.88;;
85328;SDS011;76315;47.638;21.652;2024-02-23T13:11:35;10.68;;;4.55;;
85328;SDS011;76315;47.638;21.652;2024-02-23T13:14:18;9.40;;;4.70;;
85328;SDS011;76315;47.638;21.652;2024-02-23T13:16:44;10.60;;;5.30;;
85328;SDS011;76315;47.638;21.652;2024-02-23T13:19:09;11.57;;;4.87;;
85328;SDS011;76315;47.638;21.652;2024-02-23T13:21:35;9.70;;;4.90;;
85328;SDS011;76315;47.638;21.652;2024-02-23T13:24:00;8.90;;;4.40;;
85328;SDS011;76315;47.638;21.652;2024-02-23T13:26:35;10.80;;;4.80;;
85328;SDS011;76315;47.638;21.652;2024-02-23T13:29:03;11.77;;;5.15;;
85328;SDS011;76315;47.638;21.652;2024-02-23T13:31:29;11.23;;;5.22;;
85328;SDS011;76315;47.638;21.652;2024-02-23T13:33:55;10.40;;;4.90;;
85328;SDS011;76315;47.638;21.652;2024-02-23T13:36:20;10.82;;;4.88;;
85328;SDS011;76315;47.638;21.652;2024-02-23T13:38:46;12.30;;;5.07;;
85328;SDS011;76315;47.638;21.652;2024-02-23T13:41:11;10.47;;;5.60;;
85328;SDS011;76315;47.638;21.652;2024-02-23T13:43:37;8.85;;;4.85;;
85328;SDS011;76315;47.638;21.652;2024-02-23T13:46:03;14.48;;;5.32;;
85328;SDS011;76315;47.638;21.652;2024-02-23T13:48:29;9.07;;;5.50;;
85328;SDS011;76315;47.638;21.652;2024-02-23T13:50:55;10.18;;;5.32;;
85328;SDS011;76315;47.638;21.652;2024-02-23T13:53:20;10.30;;;5.67;;
85328;SDS011;76315;47.638;21.652;2024-02-23T13:55:46;12.32;;;5.80;;
85328;SDS011;76315;47.638;21.652;2024-02-23T13:58:12;12.00;;;5.85;;
85328;SDS011;76315;47.638;21.652;2024-02-23T14:00:38;10.70;;;6.13;;
85328;SDS011;76315;47.638;21.652;2024-02-23T14:03:04;20.80;;;8.18;;
85328;SDS011;76315;47.638;21.652;2024-02-23T14:05:29;13.90;;;6.50;;
85328;SDS011;76315;47.638;21.652;2024-02-23T14:07:55;12.27;;;6.17;;
85328;SDS011;76315;47.638;21.652;2024-02-23T14:10:20;13.88;;;7.20;;
85328;SDS011;76315;47.638;21.652;2024-02-23T14:12:46;14.90;;;7.13;;
85328;SDS011;76315;47.638;21.652;2024-02-23T14:15:12;12.52;;;6.60;;
85328;SDS011;76315;47.638;21.652;2024-02-23T14:17:40;15.13;;;7.00;;
85328;SDS011;76315;47.638;21.652;2024-02-23T14:20:06;12.60;;;6.50;;
85328;SDS011;76315;47.638;21.652;2024-02-23T14:22:32;12.87;;;8.00;;
85328;SDS011;76315;47.638;21.652;2024-02-23T14:24:58;13.32;;;7.22;;
85328;SDS011;76315;47.638;21.652;2024-02-23T14:27:24;24.23;;;10.40;;